Time;durP1;ratioP1;P1;durP2;ratioP2;P2;SDS_P1;SDS_P2;PMS_P1;PMS_P2;Temp;Humidity;BMP_temperature;BMP_pressure;BME280_temperature;BME280_humidity;BME280_pressure;Samples;Min_cycle;Max_cycle;Signal;HPM_P1;HPM_P2
2022/03/19 00:00:53;;;;;;;11.93;2.90;;;3.20;99.90;;;;;;4991146;28;20105;-84
2022/03/19 00:03:20;;;;;;;12.95;3.25;;;3.20;99.90;;;;;;4989424;28;20038;-85
2022/03/19 00:05:46;;;;;;;9.73;2.53;;;3.50;99.90;;;;;;4974058;28;20125;-85
2022/03/19 00:08:16;;;;;;;11.85;2.63;;;3.30;99.90;;;;;;4958837;28;20041;-85
2022/03/19 00:10:42;;;;;;;18.65;3.05;;;4.10;99.90;;;;;;4991734;28;20046;-85
2022/03/19 00:13:09;;;;;;;13.88;3.47;;;3.10;99.90;;;;;;4960031;28;20046;-85
2022/03/19 00:15:36;;;;;;;14.48;3.38;;;3.10;99.90;;;;;;4992451;28;20045;-85
2022/03/19 00:18:03;;;;;;;13.02;3.00;;;4.10;99.90;;;;;;4990312;28;20086;-85
2022/03/19 00:20:30;;;;;;;15.85;3.30;;;3.00;99.90;;;;;;4959873;28;20048;-84
2022/03/19 00:22:55;;;;;;;15.95;3.33;;;3.50;99.90;;;;;;4990490;28;20078;-85
2022/03/19 00:25:21;;;;;;;16.67;3.60;;;2.90;99.90;;;;;;4973903;28;20078;-85
2022/03/19 00:27:47;;;;;;;16.63;3.30;;;2.80;99.90;;;;;;4959747;28;20467;-85
2022/03/19 00:30:13;;;;;;;12.47;3.50;;;3.50;99.90;;;;;;4990536;28;20125;-84
2022/03/19 00:32:39;;;;;;;12.37;2.70;;;2.70;99.90;;;;;;4961985;28;20042;-87
2022/03/19 00:35:07;;;;;;;14.48;3.20;;;2.70;99.90;;;;;;4991480;28;20118;-87
2022/03/19 00:37:42;;;;;;;11.32;2.65;;;2.60;99.90;;;;;;4991427;28;20105;-87
2022/03/19 00:40:09;;;;;;;15.73;3.40;;;3.20;99.90;;;;;;4993140;28;20485;-87
2022/03/19 00:42:35;;;;;;;13.40;2.88;;;2.50;99.90;;;;;;4958741;28;20045;-87
2022/03/19 00:45:01;;;;;;;17.50;3.03;;;2.50;99.90;;;;;;4974713;28;20396;-87
2022/03/19 00:47:26;;;;;;;11.63;2.60;;;2.50;99.90;;;;;;4976582;28;20049;-88
2022/03/19 00:49:52;;;;;;;10.80;3.20;;;2.50;99.90;;;;;;4974614;28;20045;-85
2022/03/19 00:52:18;;;;;;;16.27;3.37;;;2.40;99.90;;;;;;4992166;28;20149;-85
2022/03/19 00:54:43;;;;;;;13.57;3.17;;;2.40;99.90;;;;;;4960361;28;20038;-84
2022/03/19 00:57:09;;;;;;;13.67;3.10;;;2.40;99.90;;;;;;4992427;28;20045;-84
2022/03/19 00:59:35;;;;;;;14.57;3.20;;;2.30;99.90;;;;;;4958464;28;20074;-84
2022/03/19 01:02:00;;;;;;;12.10;3.50;;;2.90;99.90;;;;;;4976350;28;20046;-85
2022/03/19 01:04:26;;;;;;;10.30;3.00;;;2.20;99.90;;;;;;4945436;28;20121;-86
2022/03/19 01:06:52;;;;;;;12.83;3.30;;;2.20;99.90;;;;;;4959147;28;20053;-87
2022/03/19 01:09:18;;;;;;;19.10;3.40;;;2.20;99.90;;;;;;4958389;28;20390;-87
2022/03/19 01:11:44;;;;;;;16.67;3.37;;;3.00;99.90;;;;;;4961246;28;20124;-87
2022/03/19 01:14:09;;;;;;;16.73;3.10;;;2.60;99.90;;;;;;4990335;28;20434;-87
2022/03/19 01:16:35;;;;;;;12.40;2.90;;;2.10;99.90;;;;;;4974504;28;20124;-87
2022/03/19 01:19:01;;;;;;;14.93;3.23;;;2.10;99.90;;;;;;4992439;28;20052;-87
2022/03/19 01:21:26;;;;;;;15.27;3.40;;;2.10;99.90;;;;;;4958801;28;20042;-85
2022/03/19 01:23:52;;;;;;;13.00;3.03;;;2.10;99.90;;;;;;4991371;28;20469;-84
2022/03/19 01:26:18;;;;;;;16.73;2.93;;;3.10;99.90;;;;;;4957289;28;20042;-84
2022/03/19 01:28:43;;;;;;;16.80;3.27;;;2.10;99.90;;;;;;4988893;28;20487;-84
2022/03/19 01:31:11;;;;;;;18.53;3.37;;;2.10;99.90;;;;;;4975539;28;20042;-85
2022/03/19 01:33:37;;;;;;;13.87;2.93;;;2.10;99.90;;;;;;4992174;28;20054;-85
2022/03/19 01:36:03;;;;;;;12.50;3.23;;;2.00;99.90;;;;;;4927866;28;20078;-84
2022/03/19 01:38:28;;;;;;;12.80;3.40;;;2.00;99.90;;;;;;4943215;28;20064;-85
2022/03/19 01:40:54;;;;;;;11.83;2.60;;;2.70;99.90;;;;;;4958533;28;20061;-85
2022/03/19 01:43:20;;;;;;;16.33;3.50;;;2.90;99.90;;;;;;4990532;28;20038;-85
2022/03/19 01:45:45;;;;;;;16.57;2.90;;;1.80;99.90;;;;;;4960415;28;20477;-85
2022/03/19 01:48:11;;;;;;;11.60;2.93;;;1.90;99.90;;;;;;4958720;28;20042;-85
2022/03/19 01:50:37;;;;;;;13.27;3.40;;;2.50;99.90;;;;;;4990699;28;20038;-85
2022/03/19 01:53:03;;;;;;;16.63;2.80;;;2.60;99.90;;;;;;4942192;28;20456;-85
2022/03/19 01:55:28;;;;;;;13.77;2.87;;;1.80;99.90;;;;;;4991123;28;20633;-87
2022/03/19 01:57:55;;;;;;;13.27;2.73;;;2.40;99.90;;;;;;4942885;28;20038;-87
2022/03/19 02:00:23;;;;;;;14.20;2.60;;;1.70;99.90;;;;;;4959106;28;20068;-86
2022/03/19 02:02:51;;;;;;;10.77;2.90;;;2.20;99.90;;;;;;4962169;28;20164;-87
2022/03/19 02:05:19;;;;;;;21.13;2.73;;;2.30;99.90;;;;;;4973178;28;20507;-86
2022/03/19 02:07:46;;;;;;;10.47;2.80;;;2.70;99.90;;;;;;4975484;28;20038;-87
2022/03/19 02:10:14;;;;;;;15.03;3.40;;;1.60;99.90;;;;;;4958077;28;20096;-89
2022/03/19 02:12:41;;;;;;;18.03;2.80;;;1.40;99.90;;;;;;4957995;28;20050;-89
2022/03/19 02:15:09;;;;;;;11.57;2.80;;;1.40;99.90;;;;;;4991383;28;20038;-89
2022/03/19 02:17:35;;;;;;;17.23;3.63;;;1.40;99.90;;;;;;4957685;28;20097;-88
2022/03/19 02:20:04;;;;;;;10.40;2.77;;;1.40;99.90;;;;;;4957498;28;20433;-89
2022/03/19 02:22:30;;;;;;;12.93;2.70;;;1.40;99.90;;;;;;4974361;28;20117;-90
2022/03/19 02:27:41;;;;;;;11.50;3.10;;;1.40;99.90;;;;;;4974140;28;20109;-89
2022/03/19 02:30:10;;;;;;;16.73;3.60;;;1.40;99.90;;;;;;4958548;28;20049;-89
2022/03/19 02:32:38;;;;;;;13.77;3.00;;;1.40;99.90;;;;;;4974369;28;20066;-89
2022/03/19 02:35:04;;;;;;;12.10;2.97;;;1.40;99.90;;;;;;4991047;28;20078;-89
2022/03/19 02:37:45;;;;;;;14.27;3.17;;;1.30;99.90;;;;;;4958908;28;20395;-89
2022/03/19 02:40:13;;;;;;;12.23;3.33;;;1.40;99.90;;;;;;4990882;28;20177;-89
2022/03/19 02:42:39;;;;;;;12.73;3.27;;;1.30;99.90;;;;;;4973885;28;20030;-89
2022/03/19 02:45:06;;;;;;;16.67;3.30;;;1.40;99.90;;;;;;4990536;28;20042;-87
2022/03/19 02:47:33;;;;;;;12.77;3.20;;;1.30;99.90;;;;;;4942689;28;20035;-87
2022/03/19 02:49:59;;;;;;;19.07;3.20;;;1.30;99.90;;;;;;4986502;28;20047;-87
2022/03/19 02:52:25;;;;;;;16.47;3.20;;;1.30;99.90;;;;;;4975873;28;20044;-87
2022/03/19 02:54:52;;;;;;;16.17;3.40;;;1.30;99.90;;;;;;4988341;28;20385;-87
2022/03/19 02:57:17;;;;;;;14.00;3.10;;;1.30;99.90;;;;;;4990534;28;20030;-87
2022/03/19 02:59:43;;;;;;;11.93;3.00;;;1.50;99.90;;;;;;4990497;28;20045;-87
2022/03/19 03:02:09;;;;;;;13.20;2.93;;;1.20;99.90;;;;;;4990047;28;20049;-89
2022/03/19 03:04:34;;;;;;;20.27;3.27;;;1.20;99.90;;;;;;4959817;28;20447;-89
2022/03/19 03:07:03;;;;;;;9.37;2.70;;;1.20;99.90;;;;;;4990620;28;20049;-88
2022/03/19 03:09:31;;;;;;;15.20;3.20;;;1.30;99.90;;;;;;4958820;28;20082;-88
2022/03/19 03:12:02;;;;;;;19.43;3.77;;;1.30;99.90;;;;;;4974781;28;20388;-89
2022/03/19 03:14:28;;;;;;;20.37;3.33;;;1.40;99.90;;;;;;4975371;28;20081;-89
2022/03/19 03:16:57;;;;;;;18.10;3.17;;;2.20;99.90;;;;;;4975057;28;20038;-88
2022/03/19 03:19:23;;;;;;;15.07;3.37;;;1.40;99.90;;;;;;4990727;28;20042;-87
2022/03/19 03:21:49;;;;;;;13.23;2.87;;;1.70;99.90;;;;;;4942660;28;20483;-86
2022/03/19 03:24:15;;;;;;;18.17;3.53;;;1.40;99.90;;;;;;4972633;28;20074;-86
2022/03/19 03:26:42;;;;;;;18.47;4.03;;;2.30;99.90;;;;;;4958359;28;20394;-86
2022/03/19 03:29:08;;;;;;;13.30;3.07;;;2.70;99.90;;;;;;4958343;28;20034;-86
2022/03/19 03:31:34;;;;;;;13.83;3.73;;;1.70;99.90;;;;;;4945566;28;20362;-86
2022/03/19 03:34:01;;;;;;;14.17;3.93;;;2.10;99.90;;;;;;4976521;28;20397;-86
2022/03/19 03:36:26;;;;;;;17.13;4.27;;;1.30;99.90;;;;;;4994283;28;20045;-87
2022/03/19 03:38:52;;;;;;;15.30;3.47;;;1.30;99.90;;;;;;4959929;28;20035;-87
2022/03/19 03:41:18;;;;;;;16.73;3.67;;;1.30;99.90;;;;;;4961869;28;20038;-86
2022/03/19 03:43:45;;;;;;;11.03;3.20;;;1.30;99.90;;;;;;4993261;28;20038;-87
2022/03/19 03:46:11;;;;;;;14.70;3.20;;;1.30;99.90;;;;;;4977868;28;20049;-87
2022/03/19 03:48:38;;;;;;;17.03;3.50;;;1.30;99.90;;;;;;4961284;28;20093;-87
2022/03/19 03:51:08;;;;;;;14.03;3.70;;;1.20;99.90;;;;;;4976103;28;20034;-86
2022/03/19 03:53:35;;;;;;;17.60;3.87;;;2.30;99.90;;;;;;4961356;28;20042;-84
2022/03/19 03:56:03;;;;;;;14.40;4.03;;;1.20;99.90;;;;;;4991873;28;20507;-84
2022/03/19 03:58:29;;;;;;;16.43;3.83;;;1.20;99.90;;;;;;4990854;28;20046;-85
2022/03/19 04:00:56;;;;;;;12.47;3.73;;;2.20;99.90;;;;;;4975743;28;20466;-84
2022/03/19 04:03:21;;;;;;;14.13;3.40;;;1.20;99.90;;;;;;4994340;28;20041;-85
2022/03/19 04:05:47;;;;;;;13.50;3.80;;;1.20;99.90;;;;;;4991606;28;20477;-84
2022/03/19 04:08:13;;;;;;;15.07;4.03;;;1.20;99.90;;;;;;4976811;28;20038;-87
2022/03/19 04:10:39;;;;;;;20.40;5.00;;;1.20;99.90;;;;;;4964271;28;20073;-87
2022/03/19 04:13:04;;;;;;;15.27;4.00;;;1.20;99.90;;;;;;4960514;28;20117;-88
2022/03/19 04:15:30;;;;;;;21.60;4.13;;;1.20;99.90;;;;;;4976657;28;20072;-88
2022/03/19 04:17:56;;;;;;;21.03;4.53;;;1.20;99.90;;;;;;4961000;28;20038;-88
2022/03/19 04:20:22;;;;;;;19.70;4.30;;;1.20;99.90;;;;;;4944815;28;20046;-88
2022/03/19 04:22:49;;;;;;;15.70;4.30;;;2.50;99.90;;;;;;4975285;28;20057;-88
2022/03/19 04:25:20;;;;;;;15.40;4.03;;;1.20;99.90;;;;;;4990992;28;20046;-88
2022/03/19 04:27:51;;;;;;;16.17;4.63;;;1.20;99.90;;;;;;4959949;28;20508;-87
2022/03/19 04:30:18;;;;;;;16.50;4.67;;;1.20;99.90;;;;;;4975553;28;20085;-88
2022/03/19 04:32:50;;;;;;;17.03;4.60;;;1.20;99.90;;;;;;4987998;28;20079;-88
2022/03/19 04:38:18;;;;;;;17.00;4.75;;;1.20;99.90;;;;;;4928263;28;20486;-85
2022/03/19 04:40:45;;;;;;;18.83;4.57;;;1.20;99.90;;;;;;4992119;28;20084;-85
2022/03/19 04:43:12;;;;;;;18.53;5.10;;;1.20;99.90;;;;;;4960381;28;20042;-87
2022/03/19 04:45:39;;;;;;;20.70;4.80;;;1.70;99.90;;;;;;4959299;28;20068;-87
2022/03/19 04:48:05;;;;;;;13.80;4.80;;;1.20;99.90;;;;;;4960044;28;20046;-87
2022/03/19 04:50:31;;;;;;;22.17;5.50;;;;;;;;;;4992073;28;20081;-87
2022/03/19 04:52:58;;;;;;;16.73;5.00;;;1.10;99.90;;;;;;4991705;28;20074;-87
2022/03/19 04:55:24;;;;;;;19.67;5.47;;;1.20;99.90;;;;;;4976254;28;20129;-86
2022/03/19 04:57:50;;;;;;;14.80;4.97;;;1.20;99.90;;;;;;4977092;28;20121;-87
2022/03/19 05:00:17;;;;;;;15.50;5.10;;;1.20;99.90;;;;;;4962240;28;20034;-87
2022/03/19 05:02:44;;;;;;;24.00;5.90;;;1.20;99.90;;;;;;4991207;28;20046;-87
2022/03/19 05:05:10;;;;;;;17.13;5.20;;;1.20;99.90;;;;;;4991939;28;20047;-87
2022/03/19 05:07:37;;;;;;;20.83;5.57;;;1.10;99.90;;;;;;4991702;28;20133;-87
2022/03/19 05:12:52;;;;;;;23.63;5.37;;;1.10;99.90;;;;;;4962217;28;20049;-88
2022/03/19 05:15:18;;;;;;;27.63;6.43;;;1.10;99.90;;;;;;4944333;28;20069;-88
2022/03/19 05:17:45;;;;;;;21.90;6.10;;;1.80;99.90;;;;;;4974570;28;20092;-88
2022/03/19 05:20:12;;;;;;;19.47;5.97;;;1.10;99.90;;;;;;4976217;28;20047;-88
2022/03/19 05:22:38;;;;;;;26.00;6.30;;;1.10;99.90;;;;;;4992241;28;20038;-88
2022/03/19 05:25:05;;;;;;;21.27;6.27;;;1.30;99.90;;;;;;4959678;28;20050;-88
2022/03/19 05:27:31;;;;;;;17.73;5.70;;;1.10;99.90;;;;;;4992389;28;20088;-88
2022/03/19 05:29:57;;;;;;;26.70;6.43;;;1.10;99.90;;;;;;4969578;28;20038;-88
2022/03/19 05:32:24;;;;;;;17.13;6.33;;;1.00;99.90;;;;;;4990413;28;20100;-85
2022/03/19 05:34:50;;;;;;;17.93;5.97;;;1.00;99.90;;;;;;4954679;28;20094;-85
2022/03/19 05:37:16;;;;;;;22.70;6.80;;;0.90;99.90;;;;;;4991655;28;20073;-84
2022/03/19 05:39:43;;;;;;;15.33;5.63;;;0.90;99.90;;;;;;4991588;28;20094;-84
2022/03/19 05:42:09;;;;;;;18.53;5.97;;;0.90;99.90;;;;;;4989116;28;20046;-84
2022/03/19 05:44:35;;;;;;;22.03;6.30;;;0.80;99.90;;;;;;4990351;28;20116;-84
2022/03/19 05:47:01;;;;;;;18.53;6.50;;;0.80;99.90;;;;;;4975585;28;20069;-84
2022/03/19 05:49:28;;;;;;;18.37;5.73;;;0.80;99.90;;;;;;4991269;28;20489;-87
2022/03/19 05:51:55;;;;;;;15.67;5.40;;;0.80;99.90;;;;;;4990156;28;20042;-87
2022/03/19 05:54:21;;;;;;;19.80;6.30;;;0.80;99.90;;;;;;4956608;28;20049;-87
2022/03/19 05:56:46;;;;;;;17.90;6.70;;;0.70;99.90;;;;;;4941412;28;20478;-87
2022/03/19 05:59:12;;;;;;;16.80;6.43;;;0.80;99.90;;;;;;4957371;28;20054;-87
2022/03/19 06:01:38;;;;;;;22.03;6.70;;;0.70;99.90;;;;;;4976891;28;20041;-87
2022/03/19 06:04:04;;;;;;;20.53;7.17;;;1.20;99.90;;;;;;4975405;28;20113;-87
2022/03/19 06:06:30;;;;;;;18.27;7.20;;;1.50;99.90;;;;;;4957168;28;20053;-86
2022/03/19 06:08:57;;;;;;;22.43;7.87;;;0.90;99.90;;;;;;4958284;28;20042;-87
2022/03/19 06:11:23;;;;;;;20.73;6.70;;;1.00;99.90;;;;;;4986275;28;20034;-85
2022/03/19 06:13:49;;;;;;;24.53;7.43;;;2.20;99.90;;;;;;4989927;28;20441;-84
2022/03/19 06:16:15;;;;;;;21.73;7.47;;;1.30;99.90;;;;;;4988852;28;20038;-84
2022/03/19 06:18:46;;;;;;;16.93;6.93;;;1.40;99.90;;;;;;4956067;28;20054;-84
2022/03/19 06:21:12;;;;;;;24.60;7.50;;;1.50;99.90;;;;;;4986183;28;20055;-84
2022/03/19 06:23:37;;;;;;;22.97;8.00;;;1.60;99.90;;;;;;4987787;28;20092;-85
2022/03/19 06:26:03;;;;;;;19.70;7.53;;;1.80;99.90;;;;;;4938145;28;20385;-85
2022/03/19 06:28:29;;;;;;;16.90;7.90;;;2.90;99.90;;;;;;4952339;28;20161;-85
2022/03/19 06:30:54;;;;;;;21.07;7.13;;;2.20;99.90;;;;;;4970368;28;20374;-85
2022/03/19 06:33:21;;;;;;;22.58;7.68;;;2.50;99.90;;;;;;5008416;23;20052;-85
2022/03/19 06:38:31;;;;;;;16.10;6.45;;;4.00;99.90;;;;;;5028246;28;20114;-85
2022/03/19 06:40:59;;;;;;;18.75;6.40;;;4.80;99.90;;;;;;4997042;28;20037;-85
2022/03/19 06:43:25;;;;;;;20.15;6.10;;;5.60;99.90;;;;;;5043518;28;20044;-85
2022/03/19 06:45:54;;;;;;;17.13;5.70;;;6.70;99.90;;;;;;5046602;28;20554;-87
2022/03/19 06:48:21;;;;;;;17.67;5.35;;;7.70;99.90;;;;;;5029808;28;20040;-86
2022/03/19 06:50:46;;;;;;;13.50;5.40;;;7.90;99.90;;;;;;5012769;28;20045;-86
2022/03/19 06:53:12;;;;;;;15.10;4.75;;;8.90;99.90;;;;;;5013693;28;20033;-85
2022/03/19 06:55:38;;;;;;;15.93;5.38;;;9.00;99.90;;;;;;5030177;28;20430;-92
2022/03/19 06:58:03;;;;;;;13.40;4.97;;;9.50;99.90;;;;;;5013799;28;20037;-92
2022/03/19 07:00:29;;;;;;;21.52;6.38;;;10.00;99.90;;;;;;5007146;28;20044;-93
2022/03/19 07:02:55;;;;;;;14.80;5.22;;;10.30;99.90;;;;;;5011562;28;20103;-92
2022/03/19 07:05:25;;;;;;;13.93;5.45;;;10.70;99.90;;;;;;5032004;28;20037;-93
2022/03/19 07:07:53;;;;;;;13.98;5.60;;;11.00;99.90;;;;;;4998326;28;20041;-93
2022/03/19 07:10:19;;;;;;;14.52;5.57;;;11.30;99.90;;;;;;5031815;28;20080;-92
2022/03/19 07:12:47;;;;;;;14.23;5.57;;;11.80;99.90;;;;;;5015663;28;20075;-93
2022/03/19 07:15:14;;;;;;;16.42;5.50;;;12.30;99.90;;;;;;5034628;28;20045;-92
2022/03/19 07:17:40;;;;;;;11.60;5.18;;;12.60;99.90;;;;;;5048934;28;20168;-93
2022/03/19 07:20:07;;;;;;;13.32;4.97;;;12.80;99.90;;;;;;4983333;28;20048;-91
2022/03/19 07:22:58;;;;;;;12.10;4.95;;;13.30;99.90;;;;;;5033304;28;20104;-91
2022/03/19 07:25:25;;;;;;;13.95;4.65;;;13.70;96.60;;;;;;5032937;28;20099;-90
2022/03/19 07:27:52;;;;;;;13.13;5.13;;;14.00;98.90;;;;;;5014923;28;20056;-87
2022/03/19 07:30:18;;;;;;;12.18;4.82;;;14.10;99.30;;;;;;5032952;28;20531;-87
2022/03/19 07:32:44;;;;;;;12.52;4.70;;;14.20;97.30;;;;;;5031576;28;20138;-86
2022/03/19 07:35:13;;;;;;;12.60;4.90;;;14.40;96.40;;;;;;5036795;28;20051;-88
2022/03/19 07:37:40;;;;;;;10.80;4.82;;;14.50;96.10;;;;;;5023352;28;20060;-87
2022/03/19 07:40:07;;;;;;;11.80;4.70;;;14.50;94.10;;;;;;5038886;28;20045;-85
2022/03/19 07:42:34;;;;;;;12.85;4.47;;;14.40;92.90;;;;;;5029706;28;20399;-87
2022/03/19 07:45:00;;;;;;;14.80;5.00;;;14.90;95.60;;;;;;5015227;28;20180;-91
2022/03/19 07:47:26;;;;;;;14.35;4.85;;;15.40;94.40;;;;;;5033456;28;20037;-91
2022/03/19 07:49:52;;;;;;;15.82;4.82;;;15.60;90.10;;;;;;4997718;28;20045;-91
2022/03/19 07:52:18;;;;;;;12.70;4.88;;;15.80;91.70;;;;;;5016322;28;20377;-91
2022/03/19 07:54:43;;;;;;;13.43;5.00;;;16.10;88.20;;;;;;5009083;28;20200;-91
2022/03/19 07:57:11;;;;;;;13.05;4.88;;;16.00;90.10;;;;;;5017542;28;20441;-91
2022/03/19 07:59:40;;;;;;;14.65;4.60;;;16.00;86.30;;;;;;5017962;28;20034;-92
2022/03/19 08:02:06;;;;;;;15.88;4.90;;;16.30;87.50;;;;;;5017351;28;20044;-89
2022/03/19 08:04:31;;;;;;;11.43;4.88;;;16.40;87.10;;;;;;5027807;28;20038;-86
2022/03/19 08:06:57;;;;;;;12.82;4.95;;;16.50;84.70;;;;;;5032832;28;20037;-86
2022/03/19 08:09:24;;;;;;;11.27;4.80;;;16.40;82.70;;;;;;5014897;28;20077;-89
2022/03/19 08:11:51;;;;;;;14.77;4.65;;;16.50;85.30;;;;;;5028067;28;20053;-89
2022/03/19 08:14:18;;;;;;;13.13;5.07;;;16.90;83.80;;;;;;4994034;28;20522;-88
2022/03/19 08:16:45;;;;;;;11.85;4.50;;;16.90;83.00;;;;;;5030662;28;20041;-89
2022/03/19 08:19:11;;;;;;;10.77;4.90;;;17.10;83.60;;;;;;5032012;28;20037;-83
2022/03/19 08:21:38;;;;;;;9.98;4.28;;;16.60;82.10;;;;;;5026368;28;20040;-83
2022/03/19 08:24:07;;;;;;;12.70;4.43;;;16.60;82.10;;;;;;5028196;28;20084;-83
2022/03/19 08:26:33;;;;;;;12.85;4.95;;;17.50;80.20;;;;;;5028889;28;20045;-87
2022/03/19 08:29:00;;;;;;;11.75;4.97;;;17.50;74.10;;;;;;5011513;28;20076;-84
2022/03/19 08:31:25;;;;;;;11.32;4.78;;;17.50;77.00;;;;;;5029053;28;20049;-84
2022/03/19 08:33:52;;;;;;;13.45;5.00;;;17.60;78.50;;;;;;5010641;28;20061;-84
2022/03/19 08:36:18;;;;;;;14.05;4.93;;;17.90;77.40;;;;;;5029411;28;20038;-89
2022/03/19 08:41:28;;;;;;;11.63;4.68;;;17.20;74.20;;;;;;5017674;28;20045;-90
2022/03/19 08:43:54;;;;;;;11.85;4.95;;;16.70;74.10;;;;;;5012765;28;20042;-91
2022/03/19 08:46:19;;;;;;;15.48;4.90;;;16.60;75.30;;;;;;5029429;28;20067;-91
2022/03/19 08:48:45;;;;;;;11.52;4.47;;;16.50;75.20;;;;;;5028589;28;20037;-91
2022/03/19 08:53:55;;;;;;;10.48;3.63;;;17.10;73.00;;;;;;5027146;28;20537;-85
2022/03/19 08:56:21;;;;;;;11.20;3.67;;;17.50;73.40;;;;;;5027230;28;20046;-85
2022/03/19 08:58:47;;;;;;;10.20;4.00;;;18.10;72.20;;;;;;5011569;28;20120;-86
2022/03/19 09:01:13;;;;;;;9.18;3.88;;;17.80;70.20;;;;;;5024761;28;20042;-85
2022/03/19 09:03:39;;;;;;;10.05;3.45;;;18.40;70.30;;;;;;5027858;28;20117;-86
2022/03/19 09:06:05;;;;;;;10.75;4.10;;;18.60;69.00;;;;;;5028009;28;20069;-86
2022/03/19 09:08:30;;;;;;;8.90;4.13;;;19.20;67.50;;;;;;5012128;28;20047;-92
2022/03/19 09:10:57;;;;;;;9.82;3.63;;;19.40;64.60;;;;;;5015332;28;20038;-92
2022/03/19 09:13:23;;;;;;;12.30;3.90;;;19.60;65.50;;;;;;5013758;28;20407;-93
2022/03/19 09:15:49;;;;;;;8.98;3.60;;;19.80;63.60;;;;;;4998234;28;20038;-93
2022/03/19 09:18:16;;;;;;;10.77;3.40;;;20.50;62.90;;;;;;5022609;28;20553;-92
2022/03/19 09:20:42;;;;;;;9.98;3.35;;;20.80;60.50;;;;;;4997241;28;20041;-91
2022/03/19 09:23:09;;;;;;;11.18;3.97;;;20.90;58.80;;;;;;5024434;28;20076;-92
2022/03/19 09:25:36;;;;;;;9.68;3.55;;;20.70;56.90;;;;;;5014152;28;20041;-92
2022/03/19 09:28:02;;;;;;;10.05;3.20;;;20.40;56.60;;;;;;5030903;28;20450;-92
2022/03/19 09:30:27;;;;;;;11.13;3.40;;;19.80;57.70;;;;;;4976075;28;20053;-93
2022/03/19 09:32:57;;;;;;;13.02;3.35;;;19.90;59.50;;;;;;4998478;28;20057;-93
2022/03/19 09:35:23;;;;;;;8.88;3.13;;;20.20;57.50;;;;;;5014810;28;20369;-92
2022/03/19 09:37:50;;;;;;;9.35;3.10;;;20.40;58.80;;;;;;5014139;28;20033;-92
2022/03/19 09:40:17;;;;;;;9.18;3.10;;;20.80;56.50;;;;;;4994898;28;20038;-93
2022/03/19 09:42:50;;;;;;;9.43;3.40;;;21.20;54.20;;;;;;4998108;28;20494;-90
2022/03/19 09:45:22;;;;;;;8.57;2.65;;;21.00;56.50;;;;;;5027128;28;20065;-89
2022/03/19 09:47:48;;;;;;;9.52;3.30;;;21.10;52.90;;;;;;5023374;28;20053;-89
2022/03/19 09:50:14;;;;;;;8.38;3.05;;;21.00;54.90;;;;;;5021037;28;20080;-89
2022/03/19 09:52:42;;;;;;;9.02;3.10;;;21.60;55.00;;;;;;5028168;28;20044;-90
2022/03/19 09:55:18;;;;;;;8.43;2.92;;;22.00;54.10;;;;;;5014448;28;20522;-90
2022/03/19 09:57:44;;;;;;;8.77;3.17;;;22.10;52.50;;;;;;5029043;28;20037;-90
2022/03/19 10:00:12;;;;;;;10.15;3.38;;;21.70;53.10;;;;;;5012858;28;20041;-89
2022/03/19 10:02:55;;;;;;;7.78;2.80;;;21.80;51.90;;;;;;5047744;28;20053;-90
2022/03/19 10:10:55;;;;;;;6.75;2.45;;;22.30;50.80;;;;;;5028721;28;20064;-91
2022/03/19 10:13:23;;;;;;;7.72;2.70;;;22.90;48.70;;;;;;5012776;28;20605;-91
2022/03/19 10:15:48;;;;;;;8.02;3.00;;;22.90;49.20;;;;;;5012860;28;20042;-90
2022/03/19 10:18:14;;;;;;;8.43;2.83;;;23.10;47.60;;;;;;4996719;28;20399;-91
2022/03/19 10:20:40;;;;;;;9.70;3.30;;;23.00;49.20;;;;;;5008634;28;20052;-91
2022/03/19 10:23:09;;;;;;;7.90;2.47;;;23.30;49.00;;;;;;5014167;28;20551;-90
2022/03/19 10:25:35;;;;;;;7.25;2.60;;;24.00;47.70;;;;;;4997852;28;20038;-90
2022/03/19 10:28:08;;;;;;;7.15;2.60;;;24.30;47.60;;;;;;5032930;28;20136;-90
2022/03/19 10:30:39;;;;;;;8.95;2.92;;;24.50;47.30;;;;;;5025156;28;20431;-91
2022/03/19 10:33:08;;;;;;;8.80;2.92;;;23.80;46.10;;;;;;5007487;28;20240;-87
2022/03/19 10:35:35;;;;;;;10.45;3.17;;;23.30;46.90;;;;;;5029089;28;20049;-87
2022/03/19 10:38:15;;;;;;;8.45;2.70;;;23.00;47.50;;;;;;5028326;28;20048;-88
2022/03/19 10:40:43;;;;;;;7.78;3.08;;;23.20;48.20;;;;;;5013413;28;20491;-90
2022/03/19 10:43:11;;;;;;;9.20;2.95;;;23.30;46.20;;;;;;5015897;28;20064;-90
2022/03/19 10:45:48;;;;;;;8.88;2.65;;;24.20;48.30;;;;;;5016537;28;20087;-91
2022/03/19 10:48:25;;;;;;;7.95;2.58;;;24.40;46.20;;;;;;5032019;28;20039;-91
2022/03/19 10:50:55;;;;;;;6.85;2.67;;;24.90;44.10;;;;;;5033815;28;20049;-91
2022/03/19 10:53:22;;;;;;;9.30;3.00;;;25.00;45.60;;;;;;4998101;28;20048;-90
2022/03/19 10:55:48;;;;;;;8.23;2.92;;;24.90;45.80;;;;;;5013957;28;20065;-90
2022/03/19 10:58:14;;;;;;;9.52;2.65;;;25.00;46.20;;;;;;5014430;28;20124;-90
2022/03/19 11:00:41;;;;;;;8.55;2.83;;;24.60;45.40;;;;;;5014945;28;20029;-89
2022/03/19 11:03:27;;;;;;;8.77;2.80;;;24.70;44.40;;;;;;5016367;28;20034;-90
2022/03/19 11:05:57;;;;;;;6.45;2.47;;;23.40;45.20;;;;;;5032215;28;20044;-90
2022/03/19 11:08:24;;;;;;;10.80;3.30;;;23.90;45.50;;;;;;5028745;28;20052;-90
2022/03/19 11:10:52;;;;;;;7.03;3.10;;;24.50;46.70;;;;;;5026302;28;20038;-90
2022/03/19 11:13:23;;;;;;;8.07;2.88;;;24.90;46.80;;;;;;5015039;28;20038;-90
2022/03/19 11:15:54;;;;;;;8.65;2.78;;;25.40;45.50;;;;;;5048061;28;20385;-90
2022/03/19 11:18:23;;;;;;;6.22;2.72;;;25.70;46.00;;;;;;5032390;28;20045;-89
2022/03/19 11:20:50;;;;;;;7.05;2.50;;;25.90;43.30;;;;;;5033641;28;20038;-89
2022/03/19 11:23:34;;;;;;;6.03;2.08;;;25.80;42.70;;;;;;4999795;28;20045;-89
2022/03/19 11:26:02;;;;;;;8.98;2.50;;;25.40;41.00;;;;;;5031520;28;20046;-90
2022/03/19 11:28:29;;;;;;;7.53;2.63;;;25.10;42.80;;;;;;5031101;28;20037;-90
2022/03/19 11:31:07;;;;;;;6.50;2.50;;;25.50;43.80;;;;;;4996884;28;20334;-91
2022/03/19 11:33:35;;;;;;;6.88;2.05;;;26.30;43.70;;;;;;5016032;28;20128;-90
2022/03/19 11:36:01;;;;;;;4.78;1.98;;;26.70;41.20;;;;;;4997742;28;20049;-90
2022/03/19 11:38:28;;;;;;;6.90;2.17;;;25.90;41.30;;;;;;5015367;28;20125;-90
2022/03/19 11:40:56;;;;;;;7.07;2.45;;;25.20;41.00;;;;;;5029838;28;20033;-89
2022/03/19 11:43:24;;;;;;;7.13;2.58;;;24.90;42.40;;;;;;5030329;28;20099;-90
2022/03/19 11:46:09;;;;;;;7.85;2.80;;;25.00;43.10;;;;;;5019025;28;20044;-90
2022/03/19 11:48:35;;;;;;;5.72;2.78;;;25.40;43.00;;;;;;5032312;28;20506;-89
2022/03/19 11:51:24;;;;;;;8.68;2.72;;;25.80;44.80;;;;;;5031165;28;20038;-88
2022/03/19 11:54:01;;;;;;;7.03;2.83;;;26.50;42.60;;;;;;5015618;28;20084;-88
2022/03/19 11:56:49;;;;;;;4.72;2.10;;;25.50;41.30;;;;;;5027988;28;20042;-87
2022/03/19 11:59:27;;;;;;;5.72;2.05;;;25.40;40.50;;;;;;5008114;28;20099;-87
2022/03/19 12:01:55;;;;;;;7.00;2.08;;;25.10;39.70;;;;;;5030630;28;20044;-87
2022/03/19 12:04:23;;;;;;;6.85;2.22;;;25.10;41.70;;;;;;5028687;28;20041;-88
2022/03/19 12:06:57;;;;;;;5.07;1.98;;;25.60;42.00;;;;;;5031874;28;20037;-88
2022/03/19 12:09:41;;;;;;;6.40;2.05;;;25.60;41.10;;;;;;5030452;28;20033;-88
2022/03/19 12:12:10;;;;;;;8.05;2.58;;;25.90;41.80;;;;;;5015851;28;20049;-89
2022/03/19 12:14:36;;;;;;;5.13;2.25;;;25.90;41.40;;;;;;5032581;28;20037;-90
2022/03/19 12:17:23;;;;;;;6.57;2.30;;;25.90;41.20;;;;;;5030642;28;20040;-89
2022/03/19 12:19:53;;;;;;;5.93;1.98;;;25.90;41.30;;;;;;5030008;28;20041;-89
2022/03/19 12:22:40;;;;;;;5.15;2.20;;;25.20;40.40;;;;;;5031266;28;20048;-89
2022/03/19 12:25:18;;;;;;;6.13;2.15;;;24.30;40.40;;;;;;5030435;28;20045;-89
2022/03/19 12:27:55;;;;;;;5.50;2.00;;;24.20;41.40;;;;;;4998506;28;20030;-89
2022/03/19 12:30:22;;;;;;;6.55;2.08;;;24.00;41.40;;;;;;5027935;28;20570;-87
2022/03/19 12:32:58;;;;;;;5.07;1.88;;;24.10;40.00;;;;;;5027241;28;20088;-86
2022/03/19 12:35:43;;;;;;;4.40;1.70;;;24.00;41.00;;;;;;5030911;28;20140;-87
2022/03/19 12:38:09;;;;;;;4.28;2.00;;;23.80;41.60;;;;;;5047217;28;20037;-89
2022/03/19 12:43:22;;;;;;;4.70;1.90;;;23.60;41.20;;;;;;5029458;28;20071;-89
2022/03/19 12:45:52;;;;;;;4.50;1.73;;;23.20;41.40;;;;;;5010837;28;20045;-87
2022/03/19 12:48:20;;;;;;;6.00;2.00;;;23.30;41.90;;;;;;5028697;28;20052;-88
2022/03/19 12:50:51;;;;;;;5.05;1.90;;;23.80;42.20;;;;;;5027357;28;20103;-87
2022/03/19 12:53:28;;;;;;;6.55;2.05;;;23.70;42.10;;;;;;5028184;28;20446;-87
2022/03/19 12:56:21;;;;;;;5.10;1.92;;;23.50;42.20;;;;;;5007592;28;20049;-87
2022/03/19 12:58:50;;;;;;;4.68;2.15;;;24.00;42.30;;;;;;5029563;28;20034;-86
2022/03/19 13:01:22;;;;;;;2.85;1.40;;;24.20;42.30;;;;;;5027977;28;20117;-87
2022/03/19 13:03:56;;;;;;;3.80;1.77;;;24.10;42.20;;;;;;5014261;28;20038;-87
2022/03/19 13:06:41;;;;;;;4.38;1.88;;;24.40;42.30;;;;;;5012175;28;20042;-87
2022/03/19 13:09:10;;;;;;;4.22;1.83;;;24.50;41.70;;;;;;5014758;28;20049;-87
2022/03/19 13:11:50;;;;;;;5.88;1.80;;;23.60;42.30;;;;;;5027037;28;20377;-86
2022/03/19 13:14:17;;;;;;;4.68;1.40;;;23.60;42.80;;;;;;4976214;28;20038;-87